Impacts TAF Board
For situational awareness. Not to be used for flight planning purposes.
IDs:

KGEG - Spokane Intl, WA, US

Issued at 2332 UTC 19 Jan 2022
Updated at 0116 UTC 20 Jan 2022
Potential Impact None Slight Moderate High
Time0053Z 20/02Z 20/03Z 20/04Z 20/05Z 20/06Z 20/07Z 20/08Z 20/09Z 20/10Z 20/11Z 20/12Z 20/13Z 20/14Z>>
Type OBS PRVL PRVL PRVL PRVL PRVL PRVL PRVL PRVL PRVL PRVL PRVL PRVL PRVL
VIS 3 3 3 3 3 3 3 3 4 4 4 4 4 4
CIG 5 5 5 5 5 5 5 5 5 5 5 5 5 5
Cover OVC OVC OVC OVC OVC OVC OVC OVC OVC OVC OVC OVC OVC OVC
FltCat IFR IFR IFR IFR IFR IFR IFR IFR IFR IFR IFR IFR IFR IFR
WX BR BR BR BR BR BR BR BR -RA -SN BR -RA -SN BR -RA -SN BR -RA -SN BR -RA -SN BR -RA -SN BR
WDir 160 150 150 150 150 150 150 150 180 180 180 180 180 180
WSpd 5 4 4 4 4 4 4 4 5 5 5 5 5 5
WGst -- -- -- -- -- -- -- -- -- -- -- -- -- --
WSHgt -- -- -- -- -- -- -- -- -- -- -- -- -- --
WSDir -- -- -- -- -- -- -- -- -- -- -- -- -- --
WSSpd -- -- -- -- -- -- -- -- -- -- -- -- -- --
Raw TAF
KGEG 192332Z 2000/2024 15004KT 3SM BR OVC005
  FM200900 18005KT 4SM -RASN BR OVC005
  FM201900 21010G17KT 6SM -RA OVC008
  FM202100 22013G20KT P6SM OVC012


Raw METAR
KGEG 200053Z 16005KT 3SM BR FEW002 OVC005 02/00 A3034 RMK AO2 SLP293 T00170000
KGEG 192353Z 17004KT 3SM BR OVC005 02/01 A3033 RMK AO2 SLP291 T00220006 10022 20006 53005
KGEG 192253Z 15004KT 3SM BR OVC005 02/01 A3033 RMK AO2 SLP288 T00220006

METAR Board
Radar Display
Forecast Discussion
For situational awareness. Not to be used for flight planning purposes.